createdAt,value
2019-05-21T00:00:27.673Z,101211.35
2019-05-21T00:02:59.329Z,101209.94
2019-05-21T00:05:31.187Z,101213.27
2019-05-21T00:08:02.759Z,101216.05
2019-05-21T00:10:34.097Z,101212.75
2019-05-21T00:13:05.532Z,101214.06
2019-05-21T00:15:38.835Z,101216.37
2019-05-21T00:18:10.494Z,101206.16
2019-05-21T00:20:41.832Z,101208.36
2019-05-21T00:23:13.796Z,101213.22
2019-05-21T00:25:45.763Z,101209.87
2019-05-21T00:28:35.643Z,101214.28
2019-05-21T00:31:44.643Z,101214.68
2019-05-21T00:34:52.884Z,101212.00
2019-05-21T00:38:01.106Z,101214.00
2019-05-21T00:41:09.311Z,101207.30
2019-05-21T00:43:43.831Z,101216.59
2019-05-21T00:46:15.078Z,101211.04
2019-05-21T00:48:46.630Z,101207.88
2019-05-21T00:51:18.190Z,101204.13
2019-05-21T00:53:49.733Z,101208.53
2019-05-21T00:56:21.710Z,101207.59
2019-05-21T00:58:53.258Z,101207.00
2019-05-21T01:01:25.115Z,101204.94
2019-05-21T01:03:56.732Z,101205.80
2019-05-21T01:06:28.527Z,101209.91
2019-05-21T01:09:00.076Z,101210.29
2019-05-21T01:11:32.043Z,101212.48
2019-05-21T01:14:03.700Z,101203.39
2019-05-21T01:16:35.456Z,101208.95
2019-05-21T01:19:06.911Z,101209.91
2019-05-21T01:21:38.764Z,101211.72
2019-05-21T01:24:10.622Z,101198.83
2019-05-21T01:26:42.121Z,101200.04
2019-05-21T01:29:13.627Z,101201.28
2019-05-21T01:31:45.284Z,101207.80
2019-05-21T01:34:16.937Z,101204.56
2019-05-21T01:36:48.594Z,101208.93
2019-05-21T01:39:20.351Z,101205.12
2019-05-21T01:41:52.214Z,101204.16
2019-05-21T01:44:23.660Z,101206.44
2019-05-21T01:46:55.315Z,101207.58
2019-05-21T01:49:26.871Z,101209.67
2019-05-21T01:51:58.735Z,101208.31
2019-05-21T01:54:30.185Z,101198.15
2019-05-21T01:57:02.280Z,101204.09
2019-05-21T01:59:34.103Z,101195.09
2019-05-21T02:02:05.766Z,101200.83
2019-05-21T02:04:37.523Z,101193.02
2019-05-21T02:07:09.274Z,101194.61
2019-05-21T02:09:58.647Z,101195.83
2019-05-21T02:12:30.510Z,101194.13
2019-05-21T02:15:02.068Z,101191.38
2019-05-21T02:17:33.925Z,101197.41
2019-05-21T02:20:06.287Z,101202.11
2019-05-21T02:22:37.967Z,101194.73
2019-05-21T02:25:09.706Z,101198.38
2019-05-21T02:27:41.489Z,101205.91
2019-05-21T02:30:14.553Z,101202.66
2019-05-21T02:32:46.009Z,101207.34
2019-05-21T02:35:17.667Z,101201.79
2019-05-21T02:37:50.943Z,101207.67
2019-05-21T02:40:22.400Z,101199.66
2019-05-21T02:42:55.388Z,101213.23
2019-05-21T02:45:27.039Z,101206.05
2019-05-21T02:47:58.906Z,101214.94
2019-05-21T02:50:30.555Z,101214.19
2019-05-21T02:53:01.927Z,101219.45
2019-05-21T02:55:33.561Z,101217.77
2019-05-21T02:58:05.212Z,101223.31
2019-05-21T03:00:44.343Z,101218.72
2019-05-21T03:06:13.636Z,101229.19
2019-05-21T03:08:36.110Z,101223.92
2019-05-21T03:11:07.555Z,101226.31
2019-05-21T03:13:39.414Z,101233.02
2019-05-21T03:16:10.973Z,101223.30
2019-05-21T03:18:42.833Z,101227.19
2019-05-21T03:21:14.384Z,101226.77
2019-05-21T03:23:46.260Z,101238.45
2019-05-21T03:26:18.201Z,101225.61
2019-05-21T03:28:49.551Z,101231.96
2019-05-21T03:31:20.879Z,101227.80
2019-05-21T03:33:52.664Z,101225.80
2019-05-21T03:36:33.214Z,101226.81
2019-05-21T03:38:57.709Z,101230.45
2019-05-21T03:41:31.003Z,101234.13
2019-05-21T03:44:02.562Z,101233.74
2019-05-21T03:46:34.014Z,101233.94
2019-05-21T03:49:05.972Z,101243.36
2019-05-21T03:51:38.547Z,101237.29
2019-05-21T03:54:10.404Z,101241.66
2019-05-21T03:56:41.963Z,101241.70
2019-05-21T03:59:13.522Z,101243.34
2019-05-21T04:01:45.286Z,101231.84
2019-05-21T04:04:16.953Z,101244.16
2019-05-21T04:06:52.159Z,101240.85
2019-05-21T04:09:22.091Z,101244.63
2019-05-21T04:11:53.862Z,101243.81
2019-05-21T04:14:30.207Z,101246.02
2019-05-21T04:17:12.517Z,101249.13
2019-05-21T04:19:45.302Z,101250.48
2019-05-21T04:22:17.252Z,101252.70
2019-05-21T04:24:50.524Z,101255.25
2019-05-21T04:27:22.199Z,101254.91
2019-05-21T04:29:53.974Z,101260.39
2019-05-21T04:32:25.622Z,101257.17
2019-05-21T04:34:57.262Z,101255.00
2019-05-21T04:37:31.290Z,101255.55
2019-05-21T04:40:03.256Z,101245.87
2019-05-21T04:42:35.215Z,101243.00
2019-05-21T04:45:07.884Z,101235.23
2019-05-21T04:47:39.642Z,101235.44
2019-05-21T04:50:11.717Z,101239.44
2019-05-21T04:52:43.266Z,101236.09
2019-05-21T04:55:15.040Z,101234.04
2019-05-21T04:57:46.671Z,101235.67
2019-05-21T05:00:18.123Z,101238.72
2019-05-21T05:02:50.534Z,101234.21
2019-05-21T05:05:22.152Z,101237.37
2019-05-21T05:07:53.903Z,101233.63
2019-05-21T05:10:25.770Z,101229.43
2019-05-21T05:12:57.626Z,101235.11
2019-05-21T05:15:29.387Z,101236.70
2019-05-21T05:18:00.933Z,101233.95
2019-05-21T05:20:32.598Z,101233.25
2019-05-21T05:23:04.143Z,101232.76
2019-05-21T05:25:36.008Z,101233.57
2019-05-21T05:28:08.581Z,101232.44
2019-05-21T05:30:40.241Z,101227.80
2019-05-21T05:33:12.192Z,101219.29
2019-05-21T05:35:44.063Z,101219.55
2019-05-21T05:38:15.922Z,101220.95
2019-05-21T05:40:49.965Z,101224.00
2019-05-21T05:43:21.691Z,101225.47
2019-05-21T05:45:53.140Z,101224.72
2019-05-21T05:48:25.109Z,101229.39
2019-05-21T05:50:58.599Z,101226.50
2019-05-21T05:53:30.144Z,101230.05
2019-05-21T05:56:03.768Z,101230.55
2019-05-21T05:58:35.824Z,101231.68
2019-05-21T06:01:07.574Z,101232.59
2019-05-21T06:03:39.748Z,101227.55
2019-05-21T06:06:11.299Z,101224.67
2019-05-21T06:08:43.159Z,101228.19
2019-05-21T06:11:14.908Z,101233.57
2019-05-21T06:13:46.770Z,101227.06
2019-05-21T06:16:18.431Z,101225.65
2019-05-21T06:18:50.720Z,101230.51
2019-05-21T06:21:22.405Z,101225.72
2019-05-21T06:23:53.795Z,101232.59
2019-05-21T06:26:25.559Z,101239.08
2019-05-21T06:28:57.927Z,101232.19
2019-05-21T06:31:29.698Z,101223.34
2019-05-21T06:34:01.139Z,101227.84
2019-05-21T06:36:35.257Z,101224.81
2019-05-21T06:39:07.827Z,101225.08
2019-05-21T06:41:39.694Z,101235.97
2019-05-21T06:44:11.140Z,101230.00
2019-05-21T06:46:43.160Z,101232.20
2019-05-21T06:49:14.563Z,101219.34
2019-05-21T06:51:46.246Z,101224.00
2019-05-21T06:54:20.421Z,101223.41
2019-05-21T06:56:52.383Z,101226.58
2019-05-21T06:59:24.050Z,101224.87
2019-05-21T07:01:55.916Z,101225.59
2019-05-21T07:04:29.372Z,101222.81
2019-05-21T07:07:00.553Z,101222.70
2019-05-21T07:09:32.829Z,101227.20
2019-05-21T07:12:05.446Z,101214.13
2019-05-21T07:14:38.390Z,101216.67
2019-05-21T07:17:10.336Z,101216.80
2019-05-21T07:19:41.952Z,101221.69
2019-05-21T07:22:13.967Z,101215.95
2019-05-21T07:24:45.333Z,101217.80
2019-05-21T07:27:17.061Z,101218.41
2019-05-21T07:29:49.129Z,101219.39
2019-05-21T07:32:20.998Z,101215.59
2019-05-21T07:34:52.446Z,101212.62
2019-05-21T07:37:24.358Z,101210.11
2019-05-21T07:39:55.850Z,101203.27
2019-05-21T07:42:27.740Z,101197.59
2019-05-21T07:44:59.379Z,101207.03
2019-05-21T07:47:51.847Z,101207.69
2019-05-21T07:50:23.258Z,101205.03
2019-05-21T07:52:55.074Z,101197.71
2019-05-21T07:55:26.723Z,101199.61
2019-05-21T07:57:58.751Z,101212.64
2019-05-21T08:00:31.945Z,101198.75
2019-05-21T08:03:03.699Z,101203.77
2019-05-21T08:05:35.067Z,101204.34
2019-05-21T08:08:07.210Z,101192.25
2019-05-21T08:10:38.650Z,101208.48
2019-05-21T08:13:10.313Z,101202.53
2019-05-21T08:15:42.301Z,101204.73
2019-05-21T08:18:14.273Z,101196.45
2019-05-21T08:20:46.807Z,101197.28
2019-05-21T08:23:19.719Z,101201.36
2019-05-21T08:25:51.182Z,101202.38
2019-05-21T08:28:23.116Z,101198.66
2019-05-21T08:30:55.305Z,101193.52
2019-05-21T08:33:27.023Z,101192.38
2019-05-21T08:35:59.057Z,101200.99
2019-05-21T08:38:30.753Z,101181.97
2019-05-21T08:41:03.635Z,101183.12
2019-05-21T08:43:35.187Z,101184.14
2019-05-21T08:46:07.047Z,101178.09
2019-05-21T08:48:39.009Z,101185.61
2019-05-21T08:51:11.607Z,101175.44
2019-05-21T08:53:43.651Z,101166.38
2019-05-21T08:56:15.114Z,101159.14
2019-05-21T08:58:47.170Z,101158.01
2019-05-21T09:01:18.622Z,101154.34
2019-05-21T09:04:17.729Z,101163.75
2019-05-21T09:06:49.361Z,101174.36
2019-05-21T09:09:21.539Z,101168.06
2019-05-21T09:11:53.084Z,101166.34
2019-05-21T09:14:24.685Z,101172.25
2019-05-21T09:16:56.327Z,101162.83
2019-05-21T09:19:28.054Z,101162.81
2019-05-21T09:21:59.540Z,101161.58
2019-05-21T09:24:31.051Z,101160.61
2019-05-21T09:27:04.308Z,101157.71
2019-05-21T09:29:36.309Z,101152.20
2019-05-21T09:32:08.167Z,101149.72
2019-05-21T09:34:48.893Z,101159.86
2019-05-21T09:37:19.630Z,101154.19
2019-05-21T09:40:09.455Z,101153.30
2019-05-21T09:42:46.934Z,101156.63
2019-05-21T09:45:20.657Z,101157.35
2019-05-21T09:47:52.003Z,101153.64
2019-05-21T09:50:23.754Z,101142.71
2019-05-21T09:52:55.113Z,101146.64
2019-05-21T09:55:29.122Z,101152.77
2019-05-21T09:58:04.765Z,101144.61
2019-05-21T10:00:59.988Z,101149.89
2019-05-21T10:03:33.418Z,101155.67
2019-05-21T10:06:07.170Z,101159.58
2019-05-21T10:08:50.362Z,101153.63
2019-05-21T10:11:22.567Z,101149.35
2019-05-21T10:13:53.904Z,101140.48
2019-05-21T10:16:25.673Z,101146.45
2019-05-21T10:18:57.136Z,101142.05
2019-05-21T10:21:47.217Z,101143.42
2019-05-21T10:24:18.873Z,101143.77
2019-05-21T10:26:50.622Z,101134.61
2019-05-21T10:29:22.378Z,101132.23
2019-05-21T10:31:54.139Z,101136.65
2019-05-21T10:34:26.301Z,101144.92
2019-05-21T10:36:58.067Z,101131.69
2019-05-21T10:39:29.418Z,101127.53
2019-05-21T10:42:20.549Z,101125.45
2019-05-21T10:44:51.978Z,101121.51
2019-05-21T10:47:29.767Z,101120.19
2019-05-21T10:50:01.116Z,101119.44
2019-05-21T10:52:33.902Z,101121.86
2019-05-21T10:55:09.855Z,101125.64
2019-05-21T10:57:41.436Z,101121.11
2019-05-21T11:00:14.940Z,101128.72
2019-05-21T11:02:48.194Z,101125.84
2019-05-21T11:05:24.376Z,101128.16
2019-05-21T11:07:55.925Z,101126.69
2019-05-21T11:10:27.575Z,101121.95
2019-05-21T11:12:59.650Z,101117.06
2019-05-21T11:15:32.578Z,101121.84
2019-05-21T11:18:11.017Z,101116.02
2019-05-21T11:20:45.661Z,101107.89
2019-05-21T11:23:17.419Z,101103.77
2019-05-21T11:25:49.277Z,101109.23
2019-05-21T11:28:21.045Z,101099.00
2019-05-21T11:30:57.340Z,101103.88
2019-05-21T11:33:31.825Z,101100.25
2019-05-21T11:36:03.997Z,101099.62
2019-05-21T11:38:40.182Z,101092.79
2019-05-21T11:41:08.869Z,101093.67
2019-05-21T11:43:42.972Z,101082.33
2019-05-21T11:46:32.111Z,101093.45
2019-05-21T11:49:09.101Z,101087.23
2019-05-21T11:51:40.439Z,101082.38
2019-05-21T11:54:12.018Z,101076.94
2019-05-21T11:56:43.774Z,101062.66
2019-05-21T11:59:16.568Z,101077.30
2019-05-21T12:01:48.514Z,101071.84
2019-05-21T12:04:20.156Z,101069.59
2019-05-21T12:06:51.504Z,101060.23
2019-05-21T12:09:23.305Z,101056.20
2019-05-21T12:11:57.375Z,101060.28
2019-05-21T12:14:29.127Z,101048.70
2019-05-21T12:17:00.582Z,101047.31
2019-05-21T12:19:32.997Z,101036.08
2019-05-21T12:22:04.415Z,101045.09
2019-05-21T12:24:38.525Z,101037.81
2019-05-21T12:27:10.182Z,101033.73
2019-05-21T12:29:41.735Z,101039.30
2019-05-21T12:32:13.179Z,101055.44
2019-05-21T12:34:47.284Z,101026.34
2019-05-21T12:37:19.389Z,101034.89
2019-05-21T12:39:51.043Z,101039.59
2019-05-21T12:42:22.768Z,101036.72
2019-05-21T12:44:55.096Z,101029.85
2019-05-21T12:47:26.951Z,101022.96
2019-05-21T12:49:58.742Z,101026.33
2019-05-21T12:52:33.656Z,101034.88
2019-05-21T12:55:07.635Z,101017.55
2019-05-21T12:57:39.355Z,101019.76
2019-05-21T13:00:13.288Z,101016.37
2019-05-21T13:02:44.718Z,101012.63
2019-05-21T13:05:16.682Z,101011.25
2019-05-21T13:07:48.432Z,101010.03
2019-05-21T13:10:22.698Z,101018.36
2019-05-21T13:12:54.132Z,101002.72
2019-05-21T13:15:27.297Z,101002.97
2019-05-21T13:17:59.000Z,100988.00
2019-05-21T13:20:30.721Z,100993.88
2019-05-21T13:23:03.729Z,100988.64
2019-05-21T13:25:36.559Z,100991.67
2019-05-21T13:28:09.161Z,100984.59
2019-05-21T13:30:44.093Z,100974.20
2019-05-21T13:33:19.241Z,100975.45
2019-05-21T13:35:48.945Z,100988.80
2019-05-21T13:38:21.014Z,100968.58
2019-05-21T13:40:54.403Z,100959.55
2019-05-21T13:43:25.972Z,100965.38
2019-05-21T13:45:57.924Z,100963.28
2019-05-21T13:48:29.672Z,100968.08
2019-05-21T13:51:01.650Z,100973.34
2019-05-21T13:53:35.585Z,100961.85
2019-05-21T13:56:07.718Z,100977.17
2019-05-21T13:58:40.313Z,100966.70
2019-05-21T14:01:15.909Z,100963.98
2019-05-21T14:03:46.255Z,100964.30
2019-05-21T14:06:20.335Z,100958.91
2019-05-21T14:08:54.783Z,100955.72
2019-05-21T14:11:26.466Z,100954.94
2019-05-21T14:13:57.990Z,100945.97
2019-05-21T14:16:34.776Z,100948.62
2019-05-21T14:19:08.580Z,100947.22
2019-05-21T14:21:40.656Z,100939.63
2019-05-21T14:24:12.499Z,100933.36
2019-05-21T14:26:44.385Z,100938.67
2019-05-21T14:29:17.629Z,100935.12
2019-05-21T14:31:50.334Z,100963.45
2019-05-21T14:34:21.812Z,100927.33
2019-05-21T14:36:54.275Z,100929.45
2019-05-21T14:39:28.299Z,100924.75
2019-05-21T14:42:00.146Z,100940.34
2019-05-21T14:44:32.006Z,100930.05
2019-05-21T14:47:05.187Z,100921.41
2019-05-21T14:49:37.673Z,100936.19
2019-05-21T14:52:10.980Z,100926.73
2019-05-21T14:54:42.540Z,100919.86
2019-05-21T14:57:14.077Z,100923.20
2019-05-21T14:59:45.836Z,100917.48
2019-05-21T15:02:18.511Z,100934.22
2019-05-21T15:04:51.062Z,100908.37
2019-05-21T15:07:23.471Z,100912.53
2019-05-21T15:09:55.664Z,100911.84
2019-05-21T15:12:27.889Z,100909.81
2019-05-21T15:14:59.455Z,100915.63
2019-05-21T15:17:41.082Z,100910.20
2019-05-21T15:20:17.159Z,100910.95
2019-05-21T15:25:35.170Z,100909.70
2019-05-21T15:28:08.439Z,100902.98
2019-05-21T15:30:42.087Z,100906.58
2019-05-21T15:33:14.209Z,100907.94
2019-05-21T15:35:46.758Z,100909.72
2019-05-21T15:38:18.762Z,100906.31
2019-05-21T15:41:09.826Z,100910.16
2019-05-21T15:43:28.543Z,100903.52
2019-05-21T15:46:00.609Z,100909.95
2019-05-21T15:48:40.416Z,100912.83
2019-05-21T15:51:11.960Z,100912.80
2019-05-21T15:53:43.814Z,100920.52
2019-05-21T15:56:15.256Z,100911.17
2019-05-21T15:58:47.059Z,100911.64
2019-05-21T16:01:18.684Z,100913.36
2019-05-21T16:03:51.161Z,100914.64
2019-05-21T16:06:22.633Z,100916.28
2019-05-21T16:08:54.810Z,100914.83
2019-05-21T16:11:28.977Z,100922.27
2019-05-21T16:14:00.235Z,100914.39
2019-05-21T16:16:31.699Z,100904.85
2019-05-21T16:19:03.759Z,100912.33
2019-05-21T16:21:35.204Z,100917.73
2019-05-21T16:24:06.998Z,100912.11
2019-05-21T16:26:38.513Z,100915.41
2019-05-21T16:29:15.514Z,100918.87
2019-05-21T16:31:47.470Z,100918.22
2019-05-21T16:34:19.125Z,100910.10
2019-05-21T16:36:51.003Z,100912.56
2019-05-21T16:39:23.659Z,100918.48
2019-05-21T16:41:58.228Z,100912.40
2019-05-21T16:44:29.942Z,100919.04
2019-05-21T16:47:01.497Z,100911.80
2019-05-21T16:49:33.280Z,100910.47
2019-05-21T16:52:05.032Z,100910.61
2019-05-21T16:54:37.210Z,100910.02
2019-05-21T16:57:09.377Z,100915.92
2019-05-21T16:59:42.329Z,100916.20
2019-05-21T17:02:29.664Z,100921.31
2019-05-21T17:05:21.007Z,100920.83
2019-05-21T17:07:52.330Z,100928.10
2019-05-21T17:10:24.283Z,100936.06
2019-05-21T17:12:56.040Z,100925.93
2019-05-21T17:15:28.098Z,100930.02
2019-05-21T17:17:59.656Z,100924.58
2019-05-21T17:20:34.067Z,100928.39
2019-05-21T17:23:06.145Z,100922.56
2019-05-21T17:25:38.747Z,100925.34
2019-05-21T17:28:10.697Z,100921.41
2019-05-21T17:30:47.493Z,100928.14
2019-05-21T17:33:20.577Z,100927.05
2019-05-21T17:35:52.468Z,100923.19
2019-05-21T17:38:24.739Z,100930.73
2019-05-21T17:40:58.735Z,100935.20
2019-05-21T17:43:30.920Z,100933.11
2019-05-21T17:46:03.047Z,100926.04
2019-05-21T17:48:35.387Z,100932.34
2019-05-21T17:51:09.858Z,100939.33
2019-05-21T17:53:41.821Z,100932.28
2019-05-21T17:56:13.695Z,100932.41
2019-05-21T17:58:45.821Z,100935.68
2019-05-21T18:01:18.713Z,100937.56
2019-05-21T18:03:59.371Z,100940.95
2019-05-21T18:06:31.654Z,100942.46
2019-05-21T18:09:05.305Z,100935.27
2019-05-21T18:11:49.293Z,100944.46
2019-05-21T18:14:21.194Z,100941.28
2019-05-21T18:16:53.191Z,100941.89
2019-05-21T18:19:24.869Z,100947.40
2019-05-21T18:21:57.232Z,100947.07
2019-05-21T18:24:29.416Z,100936.20
2019-05-21T18:27:01.455Z,100947.44
2019-05-21T18:29:33.433Z,100940.49
2019-05-21T18:32:05.489Z,100937.19
2019-05-21T18:34:37.315Z,100936.94
2019-05-21T18:37:10.185Z,100932.91
2019-05-21T18:39:45.423Z,100935.23
2019-05-21T18:42:22.133Z,100935.84
2019-05-21T18:44:51.508Z,100935.13
2019-05-21T18:47:23.409Z,100938.34
2019-05-21T18:49:55.154Z,100937.98
2019-05-21T18:52:27.312Z,100945.95
2019-05-21T18:54:58.757Z,100947.80
2019-05-21T18:57:30.593Z,100949.98
2019-05-21T19:00:02.671Z,100960.49
2019-05-21T19:02:34.479Z,100952.44
2019-05-21T19:05:10.021Z,100940.47
2019-05-21T19:07:42.451Z,100947.44
2019-05-21T19:10:16.885Z,100942.29
2019-05-21T19:12:51.773Z,100941.81
2019-05-21T19:15:41.637Z,100941.61
2019-05-21T19:18:14.814Z,100942.73
2019-05-21T19:20:50.088Z,100941.50
2019-05-21T19:23:23.911Z,100936.00
2019-05-21T19:25:57.187Z,100934.27
2019-05-21T19:28:29.946Z,100938.54
2019-05-21T19:31:02.410Z,100937.72
2019-05-21T19:33:34.043Z,100945.91
2019-05-21T19:36:19.968Z,100937.60
2019-05-21T19:38:51.691Z,100933.70
2019-05-21T19:41:23.556Z,100940.53
2019-05-21T19:43:56.991Z,100941.73
2019-05-21T19:46:29.882Z,100935.16
2019-05-21T19:49:01.696Z,100936.36
2019-05-21T19:51:33.235Z,100931.36
2019-05-21T19:54:17.206Z,100935.14
2019-05-21T19:56:48.754Z,100933.66
2019-05-21T19:59:20.079Z,100938.06
2019-05-21T20:01:57.881Z,100932.44
2019-05-21T20:04:30.482Z,100936.34
2019-05-21T20:07:02.221Z,100935.99
2019-05-21T20:09:34.736Z,100927.79
2019-05-21T20:12:25.240Z,100929.27
2019-05-21T20:14:57.053Z,100925.23
2019-05-21T20:17:28.787Z,100927.91
2019-05-21T20:20:01.843Z,100926.94
2019-05-21T20:22:33.547Z,100931.31
2019-05-21T20:25:05.291Z,100923.52
2019-05-21T20:27:37.626Z,100921.33
2019-05-21T20:30:13.169Z,100924.26
2019-05-21T20:32:50.324Z,100925.97
2019-05-21T20:35:23.706Z,100930.23
2019-05-21T20:37:55.857Z,100921.55
2019-05-21T20:40:29.478Z,100919.83
2019-05-21T20:43:19.904Z,100920.91
2019-05-21T20:45:52.113Z,100919.08
2019-05-21T20:48:26.141Z,100921.84
2019-05-21T20:50:59.235Z,100926.84
2019-05-21T20:53:30.596Z,100926.20
2019-05-21T20:56:02.339Z,100927.88
2019-05-21T20:58:33.785Z,100933.84
2019-05-21T21:01:06.265Z,100928.13
2019-05-21T21:03:37.609Z,100929.92
2019-05-21T21:06:09.992Z,100924.17
2019-05-21T21:08:41.635Z,100927.60
2019-05-21T21:11:14.471Z,100921.91
2019-05-21T21:13:46.379Z,100924.22
2019-05-21T21:16:18.239Z,100918.75
2019-05-21T21:18:49.803Z,100919.13
2019-05-21T21:21:21.583Z,100916.70
2019-05-21T21:23:56.434Z,100908.86
2019-05-21T21:26:28.293Z,100908.86
2019-05-21T21:28:59.791Z,100904.23
2019-05-21T21:31:31.752Z,100897.03
2019-05-21T21:34:04.136Z,100892.62
2019-05-21T21:36:36.351Z,100900.31
2019-05-21T21:39:08.172Z,100895.92
2019-05-21T21:41:40.804Z,100904.34
2019-05-21T21:44:12.554Z,100898.48
2019-05-21T21:46:43.696Z,100895.53
2019-05-21T21:49:15.953Z,100892.20
2019-05-21T21:51:47.350Z,100891.84
2019-05-21T21:54:20.849Z,100888.08
2019-05-21T21:56:52.311Z,100882.92
2019-05-21T21:59:24.180Z,100880.50
2019-05-21T22:04:43.760Z,100873.78
2019-05-21T22:07:16.335Z,100866.70
2019-05-21T22:09:50.239Z,100855.96
2019-05-21T22:12:21.901Z,100857.20
2019-05-21T22:14:57.587Z,100856.34
2019-05-21T22:17:29.348Z,100857.16
2019-05-21T22:20:01.584Z,100859.13
2019-05-21T22:22:34.759Z,100855.48
2019-05-21T22:25:07.239Z,100849.46
2019-05-21T22:27:39.619Z,100845.53
2019-05-21T22:30:12.523Z,100841.00
2019-05-21T22:32:44.561Z,100839.42
2019-05-21T22:35:16.113Z,100837.34
2019-05-21T22:37:50.225Z,100833.69
2019-05-21T22:40:22.084Z,100832.19
2019-05-21T22:42:54.046Z,100832.06
2019-05-21T22:45:25.699Z,100825.84
2019-05-21T22:47:57.252Z,100827.07
2019-05-21T22:50:29.428Z,100817.31
2019-05-21T22:53:00.896Z,100818.88
2019-05-21T22:55:32.554Z,100822.40
2019-05-21T22:58:05.513Z,100824.21
2019-05-21T23:00:36.861Z,100828.05
2019-05-21T23:03:08.560Z,100818.28
2019-05-21T23:05:39.865Z,100825.26
2019-05-21T23:08:11.866Z,100817.09
2019-05-21T23:10:43.478Z,100820.97
2019-05-21T23:13:14.932Z,100826.69
2019-05-21T23:15:47.913Z,100824.97
2019-05-21T23:18:24.390Z,100819.77
2019-05-21T23:21:07.718Z,100822.78
2019-05-21T23:23:41.127Z,100830.45
2019-05-21T23:26:13.853Z,100825.67
2019-05-21T23:28:45.651Z,100822.89
2019-05-21T23:31:17.103Z,100815.95
2019-05-21T23:33:50.191Z,100820.03
2019-05-21T23:36:21.638Z,100821.51
2019-05-21T23:38:52.995Z,100815.03
2019-05-21T23:41:24.341Z,100812.50
2019-05-21T23:43:56.091Z,100815.03
2019-05-21T23:46:28.669Z,100813.59
2019-05-21T23:49:00.327Z,100807.62
2019-05-21T23:51:32.184Z,100804.56
2019-05-21T23:54:04.556Z,100811.64
2019-05-21T23:56:35.923Z,100803.06
2019-05-21T23:59:07.561Z,100804.78
